createdAt,value
2022-11-29T00:04:23.745Z,101355.44
2022-11-29T00:09:28.766Z,101361.12
2022-11-29T00:14:32.498Z,101359.13
2022-11-29T00:19:37.937Z,101346.88
2022-11-29T00:24:43.286Z,101342.31
2022-11-29T00:29:47.192Z,101346.25
2022-11-29T00:34:50.922Z,101352.75
2022-11-29T00:39:55.988Z,101351.53
2022-11-29T00:44:59.731Z,101357.22
2022-11-29T00:50:03.662Z,101360.34
2022-11-29T00:55:09.831Z,101361.16
2022-11-29T01:00:14.674Z,101355.78
2022-11-29T01:05:19.217Z,101359.91
2022-11-29T01:10:24.262Z,101360.66
2022-11-29T01:15:28.832Z,101358.91
2022-11-29T01:20:32.640Z,101358.69
2022-11-29T01:25:37.762Z,101361.81
2022-11-29T01:30:41.500Z,101363.50
2022-11-29T01:35:49.095Z,101369.31
2022-11-29T01:41:02.694Z,101368.84
2022-11-29T01:46:06.402Z,101371.97
2022-11-29T01:51:10.077Z,101383.91
2022-11-29T01:56:16.870Z,101391.53
2022-11-29T02:01:20.979Z,101399.91
2022-11-29T02:06:24.849Z,101407.47
2022-11-29T02:11:53.147Z,101414.28
2022-11-29T02:17:04.254Z,101421.75
2022-11-29T02:22:18.500Z,101417.41
2022-11-29T02:27:56.198Z,101424.97
2022-11-29T02:33:28.365Z,101433.59
2022-11-29T02:39:00.319Z,101433.59
2022-11-29T02:44:52.413Z,101442.50
2022-11-29T02:50:15.462Z,101449.75
2022-11-29T02:55:26.035Z,101445.62
2022-11-29T03:00:30.609Z,101454.00
2022-11-29T03:05:44.679Z,101463.69
2022-11-29T03:10:59.597Z,101463.94
2022-11-29T03:16:18.267Z,101460.47
2022-11-29T03:21:32.118Z,101467.03
2022-11-29T03:26:43.202Z,101475.19
2022-11-29T03:31:53.037Z,101471.25
2022-11-29T03:37:04.705Z,101474.63
2022-11-29T03:42:12.205Z,101477.94
2022-11-29T03:47:19.613Z,101488.09
2022-11-29T03:52:32.994Z,101491.66
2022-11-29T03:57:46.174Z,101487.06
2022-11-29T04:03:25.965Z,101494.41
2022-11-29T04:08:58.601Z,101489.72
2022-11-29T04:14:28.786Z,101501.97
2022-11-29T04:20:07.579Z,101501.06
2022-11-29T04:25:50.337Z,101497.31
2022-11-29T04:31:06.140Z,101501.16
2022-11-29T04:36:42.186Z,101509.00
2022-11-29T04:42:09.266Z,101518.44
2022-11-29T04:47:47.382Z,101524.06
2022-11-29T04:52:59.893Z,101530.88
2022-11-29T04:58:14.310Z,101539.81
2022-11-29T05:03:29.022Z,101527.06
2022-11-29T05:08:46.346Z,101529.88
2022-11-29T05:13:57.617Z,101535.44
2022-11-29T05:19:26.172Z,101549.06
2022-11-29T05:24:46.227Z,101556.84
2022-11-29T05:29:56.375Z,101563.88
2022-11-29T05:35:22.306Z,101569.69
2022-11-29T05:40:41.938Z,101583.75
2022-11-29T05:45:50.763Z,101583.53
2022-11-29T05:51:11.706Z,101604.81
2022-11-29T05:56:24.704Z,101603.50
2022-11-29T06:01:32.673Z,101616.56
2022-11-29T06:06:44.399Z,101622.12
2022-11-29T06:11:51.353Z,101622.94
2022-11-29T06:17:18.284Z,101627.66
2022-11-29T06:22:56.929Z,101627.66
2022-11-29T06:28:19.378Z,101633.78
2022-11-29T06:33:28.052Z,101634.16
2022-11-29T06:38:33.540Z,101640.97
2022-11-29T06:43:37.746Z,101662.00
2022-11-29T06:48:47.454Z,101660.47
2022-11-29T06:54:02.111Z,101663.03
2022-11-29T06:59:13.818Z,101670.28
2022-11-29T07:04:47.554Z,101681.50
2022-11-29T07:09:58.447Z,101682.00
2022-11-29T07:15:02.859Z,101692.13
2022-11-29T07:20:16.870Z,101684.69
2022-11-29T07:25:33.198Z,101684.56
2022-11-29T07:30:46.010Z,101693.34
2022-11-29T07:35:56.839Z,101703.16
2022-11-29T07:41:07.138Z,101716.34
2022-11-29T07:46:10.878Z,101731.97
2022-11-29T07:51:14.850Z,101743.91
2022-11-29T07:56:19.918Z,101744.28
2022-11-29T08:01:23.694Z,101751.19
2022-11-29T08:06:27.637Z,101745.47
2022-11-29T08:11:32.679Z,101747.31
2022-11-29T08:16:37.019Z,101748.69
2022-11-29T08:21:40.890Z,101743.94
2022-11-29T08:26:46.090Z,101744.88
2022-11-29T08:31:53.393Z,101753.75
2022-11-29T08:36:57.348Z,101766.97
2022-11-29T08:42:02.348Z,101774.00
2022-11-29T08:47:23.646Z,101781.19
2022-11-29T08:52:45.092Z,101780.66
2022-11-29T08:57:51.457Z,101784.91
2022-11-29T09:02:55.181Z,101793.75
2022-11-29T09:07:59.604Z,101807.59
2022-11-29T09:13:04.773Z,101803.84
2022-11-29T09:18:08.858Z,101808.88
2022-11-29T09:23:13.328Z,101811.47
2022-11-29T09:28:18.406Z,101822.31
2022-11-29T09:33:22.146Z,101819.03
2022-11-29T09:38:26.169Z,101831.81
2022-11-29T09:43:39.456Z,101831.25
2022-11-29T09:49:04.679Z,101839.31
2022-11-29T09:54:20.208Z,101842.03
2022-11-29T09:59:29.840Z,101843.97
2022-11-29T10:04:40.293Z,101847.16
2022-11-29T10:09:48.912Z,101857.16
2022-11-29T10:15:02.143Z,101865.47
2022-11-29T10:20:12.215Z,101864.34
2022-11-29T10:25:22.734Z,101862.56
2022-11-29T10:30:27.965Z,101867.53
2022-11-29T10:35:31.898Z,101865.09
2022-11-29T10:40:39.231Z,101847.37
2022-11-29T10:45:50.524Z,101853.66
2022-11-29T10:50:54.955Z,101849.75
2022-11-29T10:56:03.294Z,101854.09
2022-11-29T11:01:09.041Z,101854.22
2022-11-29T11:06:15.587Z,101858.28
2022-11-29T11:11:26.311Z,101857.94
2022-11-29T11:16:35.754Z,101868.66
2022-11-29T11:21:41.045Z,101868.00
2022-11-29T11:26:46.333Z,101860.63
2022-11-29T11:31:57.134Z,101857.50
2022-11-29T11:37:20.900Z,101864.41
2022-11-29T11:42:40.446Z,101865.44
2022-11-29T11:47:49.439Z,101866.75
2022-11-29T11:52:55.706Z,101877.28
2022-11-29T11:58:08.950Z,101882.28
2022-11-29T12:03:36.915Z,101885.19
2022-11-29T12:08:41.060Z,101891.75
2022-11-29T12:13:50.096Z,101890.97
2022-11-29T12:19:01.694Z,101896.44
2022-11-29T12:24:14.844Z,101910.25
2022-11-29T12:29:20.506Z,101906.06
2022-11-29T12:34:43.425Z,101908.44
2022-11-29T12:39:58.158Z,101919.06
2022-11-29T12:45:21.655Z,101921.22
2022-11-29T12:50:39.520Z,101919.19
2022-11-29T12:55:55.482Z,101924.56
2022-11-29T13:01:12.022Z,101928.69
2022-11-29T13:06:26.099Z,101928.91
2022-11-29T13:11:31.879Z,101925.78
2022-11-29T13:16:50.661Z,101927.88
2022-11-29T13:22:03.851Z,101930.56
2022-11-29T13:27:09.247Z,101935.94
2022-11-29T13:32:29.142Z,101934.47
2022-11-29T13:37:40.268Z,101940.53
2022-11-29T13:42:51.065Z,101936.81
2022-11-29T13:47:57.391Z,101945.78
2022-11-29T13:53:07.253Z,101947.44
2022-11-29T13:58:33.422Z,101951.19
2022-11-29T14:03:41.828Z,101946.13
2022-11-29T14:09:27.921Z,101947.12
2022-11-29T14:14:39.260Z,101940.97
2022-11-29T14:19:43.044Z,101939.50
2022-11-29T14:25:16.581Z,101945.75
2022-11-29T14:30:50.903Z,101944.19
2022-11-29T14:36:09.157Z,101953.81
2022-11-29T14:41:18.711Z,101956.63
2022-11-29T14:46:31.711Z,101956.31
2022-11-29T14:51:35.995Z,101961.69
2022-11-29T14:56:42.642Z,101963.44
2022-11-29T15:01:49.931Z,101955.50
2022-11-29T15:06:56.733Z,101971.78
2022-11-29T15:12:04.234Z,101964.63
2022-11-29T15:17:24.042Z,101978.31
2022-11-29T15:22:30.322Z,101967.75
2022-11-29T15:27:37.462Z,101975.41
2022-11-29T15:32:45.188Z,101975.94
2022-11-29T15:37:50.676Z,101981.66
2022-11-29T15:42:57.942Z,101976.28
2022-11-29T15:48:19.928Z,101983.81
2022-11-29T15:53:28.549Z,101983.47
2022-11-29T15:58:34.379Z,101983.34
2022-11-29T16:03:42.228Z,101981.91
2022-11-29T16:08:46.156Z,101990.78
2022-11-29T16:14:17.241Z,101996.16
2022-11-29T16:19:30.780Z,102002.13
2022-11-29T16:24:35.633Z,102007.34
2022-11-29T16:29:45.204Z,102009.94
2022-11-29T16:34:50.530Z,102006.81
2022-11-29T16:39:58.480Z,102004.56
2022-11-29T16:45:33.533Z,102007.28
2022-11-29T16:50:38.679Z,102021.03
2022-11-29T16:55:42.428Z,102022.94
2022-11-29T17:00:46.335Z,102026.53
2022-11-29T17:05:51.732Z,102015.44
2022-11-29T17:10:55.490Z,102010.81
2022-11-29T17:15:59.180Z,102015.09
2022-11-29T17:21:04.841Z,102010.63
2022-11-29T17:26:08.659Z,102015.75
2022-11-29T17:31:13.316Z,102015.53
2022-11-29T17:36:20.807Z,102021.59
2022-11-29T17:41:26.175Z,102028.22
2022-11-29T17:46:32.092Z,102039.28
2022-11-29T17:51:55.508Z,102039.50
2022-11-29T17:56:59.388Z,102050.72
2022-11-29T18:02:03.968Z,102050.37
2022-11-29T18:07:09.248Z,102047.56
2022-11-29T18:12:13.035Z,102055.72
2022-11-29T18:17:16.823Z,102059.44
2022-11-29T18:22:21.989Z,102067.84
2022-11-29T18:27:25.979Z,102082.38
2022-11-29T18:32:29.845Z,102075.66
2022-11-29T18:38:12.873Z,102078.16
2022-11-29T18:42:58.806Z,102081.34
2022-11-29T18:48:02.551Z,102088.44
2022-11-29T18:53:07.595Z,102086.75
2022-11-29T18:58:11.296Z,102089.88
2022-11-29T19:03:14.984Z,102092.25
2022-11-29T19:08:20.059Z,102091.34
2022-11-29T19:13:23.995Z,102091.75
2022-11-29T19:18:27.705Z,102095.13
2022-11-29T19:23:32.839Z,102106.31
2022-11-29T19:28:37.044Z,102106.09
2022-11-29T19:33:42.428Z,102097.00
2022-11-29T19:38:53.139Z,102097.31
2022-11-29T19:43:59.301Z,102107.16
2022-11-29T19:49:04.470Z,102106.12
2022-11-29T19:54:10.819Z,102104.31
2022-11-29T19:59:14.635Z,102104.47
2022-11-29T20:04:18.448Z,102110.50
2022-11-29T20:09:23.514Z,102116.66
2022-11-29T20:14:27.678Z,102119.09
2022-11-29T20:19:31.436Z,102131.00
2022-11-29T20:24:41.252Z,102137.69
2022-11-29T20:29:48.991Z,102140.62
2022-11-29T20:34:53.547Z,102139.03
2022-11-29T20:40:03.015Z,102127.97
2022-11-29T20:45:08.914Z,102143.97
2022-11-29T20:50:17.649Z,102140.44
2022-11-29T20:55:25.689Z,102141.22
2022-11-29T21:00:29.436Z,102139.31
2022-11-29T21:05:33.133Z,102154.12
2022-11-29T21:10:38.297Z,102161.53
2022-11-29T21:15:43.142Z,102168.03
2022-11-29T21:20:51.564Z,102169.84
2022-11-29T21:25:59.927Z,102169.41
2022-11-29T21:31:03.598Z,102173.44
2022-11-29T21:36:07.792Z,102174.69
2022-11-29T21:41:12.832Z,102172.87
2022-11-29T21:46:16.960Z,102171.63
2022-11-29T21:51:20.830Z,102172.56
2022-11-29T21:56:25.922Z,102170.50
2022-11-29T22:01:29.766Z,102168.03
2022-11-29T22:06:33.566Z,102159.53
2022-11-29T22:11:38.771Z,102168.50
2022-11-29T22:16:43.565Z,102162.34
2022-11-29T22:21:49.547Z,102157.06
2022-11-29T22:26:55.730Z,102168.50
2022-11-29T22:32:01.245Z,102170.84
2022-11-29T22:37:05.017Z,102169.94
2022-11-29T22:42:10.187Z,102170.59
2022-11-29T22:47:13.854Z,102168.16
2022-11-29T22:52:17.539Z,102179.09
2022-11-29T22:57:22.724Z,102172.94
2022-11-29T23:02:28.014Z,102172.28
2022-11-29T23:07:31.745Z,102178.22
2022-11-29T23:12:36.773Z,102183.00
2022-11-29T23:17:40.502Z,102185.66
2022-11-29T23:22:44.652Z,102183.09
2022-11-29T23:27:50.706Z,102185.56
2022-11-29T23:32:54.435Z,102187.25
2022-11-29T23:37:58.078Z,102185.81
2022-11-29T23:43:03.978Z,102183.28
2022-11-29T23:48:07.787Z,102187.88
2022-11-29T23:53:12.693Z,102188.91
2022-11-29T23:58:17.714Z,102188.38
